<?xml version="1.0" encoding="UTF-8" standalone="no" ?>
<gpx xmlns="http://www.topografix.com/GPX/1/1" xmlns:xsi="http://www.w3.org/2001/XMLSchema-instance" xsi:schemaLocation="http://www.topografix.com/GPX/1/1 http://www.topografix.com/GPX/1/1/gpx.xsd" version="1.1" creator="VisuGPX - https://www.visugpx.com">
  <metadata>
    <name>balade sur ST CLEMENT - CHARGUERAUD</name>
    <desc><![CDATA[Balade à faire avec la carte en main, car non balisée, pas de difficulté.]]></desc>
  </metadata>
  <trk>
    <name><![CDATA[OR-7888137--Saint-Clément:st clément chargueraud]]></name>
    <trkseg>
      <trkpt lat="46.07222" lon="3.69928">
        <ele>488</ele>
        <time>2017-09-07T07:26:14Z</time>
      </trkpt>
      <trkpt lat="46.07311" lon="3.69821">
        <ele>487</ele>
        <time>2017-09-07T07:28:14Z</time>
      </trkpt>
      <trkpt lat="46.07362" lon="3.69787">
        <ele>490</ele>
        <time>2017-09-07T07:30:14Z</time>
      </trkpt>
      <trkpt lat="46.07382" lon="3.698">
        <ele>486</ele>
        <time>2017-09-07T07:32:14Z</time>
      </trkpt>
      <trkpt lat="46.07448" lon="3.69744">
        <ele>489</ele>
        <time>2017-09-07T07:34:14Z</time>
      </trkpt>
      <trkpt lat="46.0751" lon="3.6971">
        <ele>498</ele>
        <time>2017-09-07T07:36:14Z</time>
      </trkpt>
      <trkpt lat="46.07576" lon="3.6974">
        <ele>492</ele>
        <time>2017-09-07T07:38:14Z</time>
      </trkpt>
      <trkpt lat="46.07612" lon="3.69808">
        <ele>486</ele>
        <time>2017-09-07T07:40:14Z</time>
      </trkpt>
      <trkpt lat="46.07668" lon="3.69847">
        <ele>487</ele>
        <time>2017-09-07T07:42:14Z</time>
      </trkpt>
      <trkpt lat="46.07734" lon="3.69813">
        <ele>488</ele>
        <time>2017-09-07T07:44:14Z</time>
      </trkpt>
      <trkpt lat="46.07832" lon="3.69765">
        <ele>482</ele>
        <time>2017-09-07T07:46:14Z</time>
      </trkpt>
      <trkpt lat="46.07883" lon="3.69684">
        <ele>482</ele>
        <time>2017-09-07T07:48:14Z</time>
      </trkpt>
      <trkpt lat="46.07921" lon="3.69619">
        <ele>480</ele>
        <time>2017-09-07T07:50:14Z</time>
      </trkpt>
      <trkpt lat="46.07969" lon="3.69546">
        <ele>480</ele>
        <time>2017-09-07T07:52:14Z</time>
      </trkpt>
      <trkpt lat="46.07957" lon="3.69478">
        <ele>482</ele>
        <time>2017-09-07T07:54:14Z</time>
      </trkpt>
      <trkpt lat="46.08016" lon="3.69508">
        <ele>477</ele>
        <time>2017-09-07T07:56:14Z</time>
      </trkpt>
      <trkpt lat="46.08061" lon="3.69431">
        <ele>480</ele>
        <time>2017-09-07T07:58:14Z</time>
      </trkpt>
      <trkpt lat="46.08097" lon="3.69306">
        <ele>484</ele>
        <time>2017-09-07T08:00:14Z</time>
      </trkpt>
      <trkpt lat="46.08118" lon="3.69199">
        <ele>483</ele>
        <time>2017-09-07T08:02:14Z</time>
      </trkpt>
      <trkpt lat="46.08091" lon="3.69104">
        <ele>493</ele>
        <time>2017-09-07T08:04:14Z</time>
      </trkpt>
      <trkpt lat="46.08136" lon="3.69139">
        <ele>484</ele>
        <time>2017-09-07T08:06:14Z</time>
      </trkpt>
      <trkpt lat="46.08189" lon="3.69139">
        <ele>480</ele>
        <time>2017-09-07T08:08:14Z</time>
      </trkpt>
      <trkpt lat="46.08177" lon="3.69062">
        <ele>488</ele>
        <time>2017-09-07T08:10:14Z</time>
      </trkpt>
      <trkpt lat="46.08177" lon="3.68971">
        <ele>495</ele>
        <time>2017-09-07T08:12:14Z</time>
      </trkpt>
      <trkpt lat="46.08252" lon="3.6904">
        <ele>480</ele>
        <time>2017-09-07T08:14:14Z</time>
      </trkpt>
      <trkpt lat="46.08261" lon="3.68976">
        <ele>484</ele>
        <time>2017-09-07T08:16:14Z</time>
      </trkpt>
      <trkpt lat="46.08296" lon="3.68907">
        <ele>487</ele>
        <time>2017-09-07T08:18:14Z</time>
      </trkpt>
      <trkpt lat="46.08344" lon="3.68881">
        <ele>488</ele>
        <time>2017-09-07T08:20:14Z</time>
      </trkpt>
      <trkpt lat="46.084" lon="3.6889">
        <ele>485</ele>
        <time>2017-09-07T08:22:14Z</time>
      </trkpt>
      <trkpt lat="46.08478" lon="3.68877">
        <ele>485</ele>
        <time>2017-09-07T08:24:14Z</time>
      </trkpt>
      <trkpt lat="46.08546" lon="3.68834">
        <ele>485</ele>
        <time>2017-09-07T08:26:14Z</time>
      </trkpt>
      <trkpt lat="46.08588" lon="3.68778">
        <ele>482</ele>
        <time>2017-09-07T08:28:14Z</time>
      </trkpt>
      <trkpt lat="46.08639" lon="3.68718">
        <ele>472</ele>
        <time>2017-09-07T08:30:14Z</time>
      </trkpt>
      <trkpt lat="46.08603" lon="3.68688">
        <ele>475</ele>
        <time>2017-09-07T08:32:14Z</time>
      </trkpt>
      <trkpt lat="46.08648" lon="3.68632">
        <ele>470</ele>
        <time>2017-09-07T08:34:14Z</time>
      </trkpt>
      <trkpt lat="46.08642" lon="3.68542">
        <ele>472</ele>
        <time>2017-09-07T08:36:14Z</time>
      </trkpt>
      <trkpt lat="46.086" lon="3.68495">
        <ele>476</ele>
        <time>2017-09-07T08:38:14Z</time>
      </trkpt>
      <trkpt lat="46.08597" lon="3.68418">
        <ele>475</ele>
        <time>2017-09-07T08:40:14Z</time>
      </trkpt>
      <trkpt lat="46.08621" lon="3.68328">
        <ele>476</ele>
        <time>2017-09-07T08:42:14Z</time>
      </trkpt>
      <trkpt lat="46.08656" lon="3.6828">
        <ele>469</ele>
        <time>2017-09-07T08:44:14Z</time>
      </trkpt>
      <trkpt lat="46.08701" lon="3.68203">
        <ele>464</ele>
        <time>2017-09-07T08:46:14Z</time>
      </trkpt>
      <trkpt lat="46.08743" lon="3.6822">
        <ele>461</ele>
        <time>2017-09-07T08:48:14Z</time>
      </trkpt>
      <trkpt lat="46.08767" lon="3.68152">
        <ele>459</ele>
        <time>2017-09-07T08:50:14Z</time>
      </trkpt>
      <trkpt lat="46.0879" lon="3.68212">
        <ele>464</ele>
        <time>2017-09-07T08:52:14Z</time>
      </trkpt>
      <trkpt lat="46.08823" lon="3.68177">
        <ele>462</ele>
        <time>2017-09-07T08:54:14Z</time>
      </trkpt>
      <trkpt lat="46.08877" lon="3.68109">
        <ele>457</ele>
        <time>2017-09-07T08:56:14Z</time>
      </trkpt>
      <trkpt lat="46.08918" lon="3.6807">
        <ele>456</ele>
        <time>2017-09-07T08:58:14Z</time>
      </trkpt>
      <trkpt lat="46.08921" lon="3.68135">
        <ele>464</ele>
        <time>2017-09-07T09:00:14Z</time>
      </trkpt>
      <trkpt lat="46.08883" lon="3.68173">
        <ele>466</ele>
        <time>2017-09-07T09:02:14Z</time>
      </trkpt>
      <trkpt lat="46.08829" lon="3.68229">
        <ele>470</ele>
        <time>2017-09-07T09:04:14Z</time>
      </trkpt>
      <trkpt lat="46.08776" lon="3.68328">
        <ele>476</ele>
        <time>2017-09-07T09:06:14Z</time>
      </trkpt>
      <trkpt lat="46.08832" lon="3.68371">
        <ele>480</ele>
        <time>2017-09-07T09:08:14Z</time>
      </trkpt>
      <trkpt lat="46.08912" lon="3.68392">
        <ele>485</ele>
        <time>2017-09-07T09:10:14Z</time>
      </trkpt>
      <trkpt lat="46.08942" lon="3.68444">
        <ele>487</ele>
        <time>2017-09-07T09:12:14Z</time>
      </trkpt>
      <trkpt lat="46.08993" lon="3.68499">
        <ele>492</ele>
        <time>2017-09-07T09:14:14Z</time>
      </trkpt>
      <trkpt lat="46.09073" lon="3.68512">
        <ele>500</ele>
        <time>2017-09-07T09:16:14Z</time>
      </trkpt>
      <trkpt lat="46.0913" lon="3.68564">
        <ele>507</ele>
        <time>2017-09-07T09:18:14Z</time>
      </trkpt>
      <trkpt lat="46.09183" lon="3.68602">
        <ele>512</ele>
        <time>2017-09-07T09:20:14Z</time>
      </trkpt>
      <trkpt lat="46.09234" lon="3.68632">
        <ele>514</ele>
        <time>2017-09-07T09:22:14Z</time>
      </trkpt>
      <trkpt lat="46.09192" lon="3.68534">
        <ele>511</ele>
        <time>2017-09-07T09:24:14Z</time>
      </trkpt>
      <trkpt lat="46.09308" lon="3.68667">
        <ele>517</ele>
        <time>2017-09-07T09:26:14Z</time>
      </trkpt>
      <trkpt lat="46.0935" lon="3.68705">
        <ele>513</ele>
        <time>2017-09-07T09:28:14Z</time>
      </trkpt>
      <trkpt lat="46.09418" lon="3.68714">
        <ele>513</ele>
        <time>2017-09-07T09:30:14Z</time>
      </trkpt>
      <trkpt lat="46.09451" lon="3.68795">
        <ele>507</ele>
        <time>2017-09-07T09:32:14Z</time>
      </trkpt>
      <trkpt lat="46.09496" lon="3.68843">
        <ele>508</ele>
        <time>2017-09-07T09:34:14Z</time>
      </trkpt>
      <trkpt lat="46.0949" lon="3.6892">
        <ele>509</ele>
        <time>2017-09-07T09:36:14Z</time>
      </trkpt>
      <trkpt lat="46.09421" lon="3.6895">
        <ele>503</ele>
        <time>2017-09-07T09:38:14Z</time>
      </trkpt>
      <trkpt lat="46.09386" lon="3.68984">
        <ele>501</ele>
        <time>2017-09-07T09:40:14Z</time>
      </trkpt>
      <trkpt lat="46.09368" lon="3.69049">
        <ele>501</ele>
        <time>2017-09-07T09:42:14Z</time>
      </trkpt>
      <trkpt lat="46.09362" lon="3.69079">
        <ele>500</ele>
        <time>2017-09-07T09:44:14Z</time>
      </trkpt>
      <trkpt lat="46.09362" lon="3.69195">
        <ele>499</ele>
        <time>2017-09-07T09:46:14Z</time>
      </trkpt>
      <trkpt lat="46.09404" lon="3.69268">
        <ele>500</ele>
        <time>2017-09-07T09:48:14Z</time>
      </trkpt>
      <trkpt lat="46.09365" lon="3.69302">
        <ele>500</ele>
        <time>2017-09-07T09:50:14Z</time>
      </trkpt>
      <trkpt lat="46.09356" lon="3.69358">
        <ele>503</ele>
        <time>2017-09-07T09:52:14Z</time>
      </trkpt>
      <trkpt lat="46.0935" lon="3.69413">
        <ele>508</ele>
        <time>2017-09-07T09:54:14Z</time>
      </trkpt>
      <trkpt lat="46.09383" lon="3.69465">
        <ele>512</ele>
        <time>2017-09-07T09:56:14Z</time>
      </trkpt>
      <trkpt lat="46.09427" lon="3.69474">
        <ele>514</ele>
        <time>2017-09-07T09:58:14Z</time>
      </trkpt>
      <trkpt lat="46.09436" lon="3.69499">
        <ele>517</ele>
        <time>2017-09-07T10:00:14Z</time>
      </trkpt>
      <trkpt lat="46.09526" lon="3.69619">
        <ele>543</ele>
        <time>2017-09-07T10:02:14Z</time>
      </trkpt>
      <trkpt lat="46.09591" lon="3.69701">
        <ele>560</ele>
        <time>2017-09-07T10:04:14Z</time>
      </trkpt>
      <trkpt lat="46.09591" lon="3.698">
        <ele>576</ele>
        <time>2017-09-07T10:06:14Z</time>
      </trkpt>
      <trkpt lat="46.09546" lon="3.69881">
        <ele>583</ele>
        <time>2017-09-07T10:08:14Z</time>
      </trkpt>
      <trkpt lat="46.0952" lon="3.69976">
        <ele>589</ele>
        <time>2017-09-07T10:10:14Z</time>
      </trkpt>
      <trkpt lat="46.09511" lon="3.7007">
        <ele>600</ele>
        <time>2017-09-07T10:12:14Z</time>
      </trkpt>
      <trkpt lat="46.09555" lon="3.7013">
        <ele>605</ele>
        <time>2017-09-07T10:14:14Z</time>
      </trkpt>
      <trkpt lat="46.09612" lon="3.70212">
        <ele>611</ele>
        <time>2017-09-07T10:16:14Z</time>
      </trkpt>
      <trkpt lat="46.09654" lon="3.70272">
        <ele>615</ele>
        <time>2017-09-07T10:18:14Z</time>
      </trkpt>
      <trkpt lat="46.09716" lon="3.70349">
        <ele>620</ele>
        <time>2017-09-07T10:20:14Z</time>
      </trkpt>
      <trkpt lat="46.09752" lon="3.70388">
        <ele>621</ele>
        <time>2017-09-07T10:22:14Z</time>
      </trkpt>
      <trkpt lat="46.09796" lon="3.70482">
        <ele>627</ele>
        <time>2017-09-07T10:24:14Z</time>
      </trkpt>
      <trkpt lat="46.09841" lon="3.70598">
        <ele>635</ele>
        <time>2017-09-07T10:26:14Z</time>
      </trkpt>
      <trkpt lat="46.09865" lon="3.70757">
        <ele>637</ele>
        <time>2017-09-07T10:28:14Z</time>
      </trkpt>
      <trkpt lat="46.09906" lon="3.70937">
        <ele>642</ele>
        <time>2017-09-07T10:30:14Z</time>
      </trkpt>
      <trkpt lat="46.09957" lon="3.71053">
        <ele>645</ele>
        <time>2017-09-07T10:32:14Z</time>
      </trkpt>
      <trkpt lat="46.10017" lon="3.71152">
        <ele>654</ele>
        <time>2017-09-07T10:34:14Z</time>
      </trkpt>
      <trkpt lat="46.10082" lon="3.71358">
        <ele>659</ele>
        <time>2017-09-07T10:36:14Z</time>
      </trkpt>
      <trkpt lat="46.10025" lon="3.71319">
        <ele>655</ele>
        <time>2017-09-07T10:38:14Z</time>
      </trkpt>
      <trkpt lat="46.09898" lon="3.71267">
        <ele>645</ele>
        <time>2017-09-07T10:40:14Z</time>
      </trkpt>
      <trkpt lat="46.09787" lon="3.71469">
        <ele>648</ele>
        <time>2017-09-07T10:42:14Z</time>
      </trkpt>
      <trkpt lat="46.09734" lon="3.71559">
        <ele>658</ele>
        <time>2017-09-07T10:44:14Z</time>
      </trkpt>
      <trkpt lat="46.09683" lon="3.71641">
        <ele>667</ele>
        <time>2017-09-07T10:46:14Z</time>
      </trkpt>
      <trkpt lat="46.09582" lon="3.71739">
        <ele>679</ele>
        <time>2017-09-07T10:48:14Z</time>
      </trkpt>
      <trkpt lat="46.09543" lon="3.71864">
        <ele>693</ele>
        <time>2017-09-07T10:50:14Z</time>
      </trkpt>
      <trkpt lat="46.09487" lon="3.71812">
        <ele>679</ele>
        <time>2017-09-07T10:52:14Z</time>
      </trkpt>
      <trkpt lat="46.09454" lon="3.71692">
        <ele>673</ele>
        <time>2017-09-07T10:54:14Z</time>
      </trkpt>
      <trkpt lat="46.09445" lon="3.71632">
        <ele>680</ele>
        <time>2017-09-07T10:56:14Z</time>
      </trkpt>
      <trkpt lat="46.09368" lon="3.71632">
        <ele>673</ele>
        <time>2017-09-07T10:58:14Z</time>
      </trkpt>
      <trkpt lat="46.09332" lon="3.71443">
        <ele>682</ele>
        <time>2017-09-07T11:00:14Z</time>
      </trkpt>
      <trkpt lat="46.09228" lon="3.71362">
        <ele>680</ele>
        <time>2017-09-07T11:02:14Z</time>
      </trkpt>
      <trkpt lat="46.09151" lon="3.71289">
        <ele>687</ele>
        <time>2017-09-07T11:04:14Z</time>
      </trkpt>
      <trkpt lat="46.09046" lon="3.71237">
        <ele>686</ele>
        <time>2017-09-07T11:06:14Z</time>
      </trkpt>
      <trkpt lat="46.0904" lon="3.71121">
        <ele>681</ele>
        <time>2017-09-07T11:08:14Z</time>
      </trkpt>
      <trkpt lat="46.09023" lon="3.70954">
        <ele>668</ele>
        <time>2017-09-07T11:10:14Z</time>
      </trkpt>
      <trkpt lat="46.08906" lon="3.70954">
        <ele>661</ele>
        <time>2017-09-07T11:12:14Z</time>
      </trkpt>
      <trkpt lat="46.08805" lon="3.71074">
        <ele>655</ele>
        <time>2017-09-07T11:14:14Z</time>
      </trkpt>
      <trkpt lat="46.0868" lon="3.71156">
        <ele>642</ele>
        <time>2017-09-07T11:16:14Z</time>
      </trkpt>
      <trkpt lat="46.08549" lon="3.71126">
        <ele>621</ele>
        <time>2017-09-07T11:18:14Z</time>
      </trkpt>
      <trkpt lat="46.08511" lon="3.7104">
        <ele>613</ele>
        <time>2017-09-07T11:20:14Z</time>
      </trkpt>
      <trkpt lat="46.08398" lon="3.71023">
        <ele>607</ele>
        <time>2017-09-07T11:22:14Z</time>
      </trkpt>
      <trkpt lat="46.08272" lon="3.70782">
        <ele>599</ele>
        <time>2017-09-07T11:24:14Z</time>
      </trkpt>
      <trkpt lat="46.08177" lon="3.70667">
        <ele>594</ele>
        <time>2017-09-07T11:26:14Z</time>
      </trkpt>
      <trkpt lat="46.08228" lon="3.70495">
        <ele>586</ele>
        <time>2017-09-07T11:28:14Z</time>
      </trkpt>
      <trkpt lat="46.08133" lon="3.70413">
        <ele>576</ele>
        <time>2017-09-07T11:30:14Z</time>
      </trkpt>
      <trkpt lat="46.07954" lon="3.70448">
        <ele>560</ele>
        <time>2017-09-07T11:32:14Z</time>
      </trkpt>
      <trkpt lat="46.07868" lon="3.70366">
        <ele>542</ele>
        <time>2017-09-07T11:34:14Z</time>
      </trkpt>
      <trkpt lat="46.07722" lon="3.70426">
        <ele>526</ele>
        <time>2017-09-07T11:36:14Z</time>
      </trkpt>
      <trkpt lat="46.07671" lon="3.7034">
        <ele>519</ele>
        <time>2017-09-07T11:38:14Z</time>
      </trkpt>
      <trkpt lat="46.0771" lon="3.70195">
        <ele>512</ele>
        <time>2017-09-07T11:40:14Z</time>
      </trkpt>
      <trkpt lat="46.0765" lon="3.70044">
        <ele>501</ele>
        <time>2017-09-07T11:42:14Z</time>
      </trkpt>
      <trkpt lat="46.07555" lon="3.69924">
        <ele>485</ele>
        <time>2017-09-07T11:44:14Z</time>
      </trkpt>
      <trkpt lat="46.07478" lon="3.69963">
        <ele>483</ele>
        <time>2017-09-07T11:46:14Z</time>
      </trkpt>
      <trkpt lat="46.07388" lon="3.70019">
        <ele>481</ele>
        <time>2017-09-07T11:48:14Z</time>
      </trkpt>
      <trkpt lat="46.07219" lon="3.70117">
        <ele>479</ele>
        <time>2017-09-07T11:50:14Z</time>
      </trkpt>
      <trkpt lat="46.07222" lon="3.69971">
        <ele>485</ele>
        <time>2017-09-07T11:52:14Z</time>
      </trkpt>
    </trkseg>
  </trk>
</gpx>